Time;durP1;ratioP1;P1;durP2;ratioP2;P2;SDS_P1;SDS_P2;PMS_P1;PMS_P2;Temp;Humidity;BMP_temperature;BMP_pressure;BME280_temperature;BME280_humidity;BME280_pressure;Samples;Min_cycle;Max_cycle;Signal;HPM_P1;HPM_P2
2022/07/15 00:02:45;;;;;;;10.50;9.90;;;;;;;17.25;100.00;102477.09;1982909;72;24163;-70
2022/07/15 00:08:29;;;;;;;9.60;9.00;;;;;;;17.19;100.00;102474.06;2009443;70;33448;-70
2022/07/15 00:11:17;;;;;;;9.40;9.00;;;;;;;17.09;100.00;102469.89;1967569;72;26284;-71
2022/07/15 00:17:01;;;;;;;10.23;9.67;;;;;;;17.07;100.00;102464.56;2016646;71;33463;-71
2022/07/15 00:19:49;;;;;;;10.07;9.43;;;;;;;17.19;100.00;102472.09;1972357;72;26272;-71
2022/07/15 00:25:33;;;;;;;10.57;9.93;;;;;;;17.00;100.00;102460.40;1991437;71;32887;-71
2022/07/15 00:28:22;;;;;;;10.60;10.10;;;;;;;16.90;100.00;102465.50;1970022;72;26286;-71
2022/07/15 00:34:06;;;;;;;10.27;9.77;;;;;;;16.93;100.00;102465.50;2007423;71;32930;-71
2022/07/15 00:36:54;;;;;;;10.47;9.87;;;;;;;16.78;100.00;102473.42;1976078;72;26661;-71
2022/07/15 00:42:47;;;;;;;10.70;10.20;;;;;;;16.74;100.00;102473.72;2007609;71;32805;-71
2022/07/15 00:45:36;;;;;;;10.67;9.93;;;;;;;16.73;100.00;102477.08;1969976;72;26198;-69
2022/07/15 00:51:21;;;;;;;10.90;10.30;;;;;;;16.73;100.00;102471.47;2016591;71;32863;-70
2022/07/15 00:54:09;;;;;;;11.20;10.60;;;;;;;16.57;100.00;102471.79;1983245;72;26210;-70
2022/07/15 00:59:58;;;;;;;11.00;10.50;;;;;;;16.78;100.00;102458.83;2007668;71;32854;-72
2022/07/15 01:02:50;;;;;;;11.17;10.67;;;;;;;16.63;100.00;102460.87;1972473;72;26204;-73
2022/07/15 01:08:33;;;;;;;11.43;10.97;;;;;;;16.56;100.00;102463.13;1995159;71;32791;-72
2022/07/15 01:11:20;;;;;;;11.50;10.90;;;;;;;16.46;100.00;102465.95;1958621;72;26719;-72
2022/07/15 01:17:09;;;;;;;11.23;10.83;;;;;;;16.56;100.00;102460.31;2011066;71;32876;-71
2022/07/15 01:19:57;;;;;;;11.80;11.20;;;;;;;16.49;100.00;102464.81;1984611;72;26200;-71
2022/07/15 01:25:42;;;;;;;11.83;11.23;;;;;;;16.50;100.00;102459.48;2011049;70;32952;-71
2022/07/15 01:28:29;;;;;;;11.00;10.50;;;;;;;16.74;100.00;102458.28;1985775;72;26301;-71
2022/07/15 01:34:14;;;;;;;12.20;11.60;;;;;;;16.74;100.00;102458.28;2016623;71;32983;-71
2022/07/15 01:37:01;;;;;;;12.10;11.57;;;;;;;16.56;100.00;102459.72;1986273;72;26305;-71
2022/07/15 01:42:46;;;;;;;12.63;12.03;;;;;;;16.34;100.00;102462.88;2004233;71;32983;-71
2022/07/15 01:45:33;;;;;;;12.70;12.20;;;;;;;16.22;100.00;102465.72;1985764;72;26253;-71
2022/07/15 01:51:18;;;;;;;13.80;13.10;;;;;;;16.14;100.00;102465.74;1997040;71;32900;-70
2022/07/15 01:54:06;;;;;;;13.90;13.23;;;;;;;16.17;100.00;102473.58;1958715;72;26201;-70
2022/07/15 01:59:50;;;;;;;14.73;13.93;;;;;;;16.01;100.00;102465.48;1991459;71;32884;-71
2022/07/15 02:02:39;;;;;;;15.60;14.80;;;;;;;16.00;100.00;102469.43;1970991;72;26219;-71
2022/07/15 02:08:25;;;;;;;15.87;14.93;;;;;;;16.09;100.00;102467.15;2005694;71;33020;-71
2022/07/15 02:11:13;;;;;;;16.00;15.30;;;;;;;15.93;100.00;102474.75;1984473;72;26623;-71
2022/07/15 02:16:57;;;;;;;16.10;15.30;;;;;;;15.95;100.00;102468.88;2006292;71;32966;-72
2022/07/15 02:19:44;;;;;;;17.07;16.20;;;;;;;15.93;100.00;102473.91;1971130;72;26655;-71
2022/07/15 02:25:30;;;;;;;18.23;17.20;;;;;;;15.79;100.00;102469.42;2011589;71;32900;-71
2022/07/15 02:28:19;;;;;;;18.27;17.47;;;;;;;15.67;100.00;102474.47;1986930;72;26208;-71
2022/07/15 02:34:03;;;;;;;18.57;17.67;;;;;;;15.67;100.00;102475.88;2011116;71;32852;-71
2022/07/15 02:36:51;;;;;;;19.63;18.53;;;;;;;15.51;100.00;102474.20;1976033;72;26208;-71
2022/07/15 02:42:38;;;;;;;19.43;18.33;;;;;;;15.42;100.00;102471.63;2016824;71;33479;-71
2022/07/15 02:45:26;;;;;;;19.77;18.67;;;;;;;15.39;100.00;102474.44;1975257;72;26705;-70
2022/07/15 02:51:11;;;;;;;20.97;19.77;;;;;;;15.36;100.00;102470.77;2005975;71;33352;-71
2022/07/15 02:53:58;;;;;;;21.50;20.40;;;;;;;15.31;100.00;102483.39;1974814;72;26710;-71
2022/07/15 02:59:42;;;;;;;21.77;20.47;;;;;;;15.05;100.00;102478.84;2018341;71;32899;-71
2022/07/15 03:02:30;;;;;;;23.30;21.80;;;;;;;15.00;100.00;102483.87;1975965;72;26293;-71
2022/07/15 03:08:14;;;;;;;23.57;22.27;;;;;;;14.97;100.00;102471.80;2009281;71;32955;-71
2022/07/15 03:11:02;;;;;;;23.33;21.77;;;;;;;14.92;100.00;102473.77;1968284;72;26299;-71
2022/07/15 03:16:47;;;;;;;23.57;21.90;;;;;;;14.90;100.00;102484.37;2006174;71;32921;-71
2022/07/15 03:19:34;;;;;;;22.90;21.37;;;;;;;14.94;100.00;102482.16;1958731;72;26398;-71
2022/07/15 03:25:18;;;;;;;23.00;21.50;;;;;;;15.04;100.00;102482.75;1991382;71;32836;-70
2022/07/15 03:28:05;;;;;;;23.27;21.77;;;;;;;14.97;100.00;102480.79;1962662;72;26648;-70
2022/07/15 03:33:50;;;;;;;22.63;21.43;;;;;;;14.93;100.00;102473.48;2016536;71;33472;-69
2022/07/15 03:36:38;;;;;;;22.47;21.13;;;;;;;15.01;100.00;102470.72;1980901;72;26731;-70
2022/07/15 03:42:22;;;;;;;23.27;21.90;;;;;;;14.94;100.00;102466.77;1998404;71;32841;-70
2022/07/15 03:45:09;;;;;;;22.50;21.30;;;;;;;14.96;100.00;102472.95;1974605;72;26200;-70
2022/07/15 03:50:54;;;;;;;23.20;22.00;;;;;;;15.12;100.00;102473.81;2018491;71;32970;-69
2022/07/15 03:53:42;;;;;;;23.07;21.87;;;;;;;14.79;100.00;102477.92;1979554;72;26211;-69
2022/07/15 03:59:26;;;;;;;22.57;21.37;;;;;;;14.70;100.00;102472.56;2013170;71;32971;-70
2022/07/15 04:02:14;;;;;;;23.60;22.30;;;;;;;14.85;100.00;102474.56;1885593;72;936823;-69
2022/07/15 04:07:59;;;;;;;22.23;21.03;;;;;;;14.93;100.00;102479.66;2005588;71;32897;-69
2022/07/15 04:10:47;;;;;;;22.73;21.50;;;;;;;14.84;100.00;102484.95;1976043;72;26208;-70
2022/07/15 04:16:31;;;;;;;22.97;21.67;;;;;;;14.85;100.00;102467.02;2011446;71;32975;-70
2022/07/15 04:19:18;;;;;;;23.17;21.83;;;;;;;14.79;100.00;102472.33;1984636;72;26728;-70
2022/07/15 04:25:03;;;;;;;27.50;25.90;;;;;;;14.57;100.00;102469.72;2002656;71;32925;-69
2022/07/15 04:27:50;;;;;;;28.77;26.97;;;;;;;14.48;100.00;102475.55;1971263;72;26262;-70
2022/07/15 04:33:35;;;;;;;28.80;26.70;;;;;;;14.81;100.00;102468.68;1880499;75;33024;-69
2022/07/15 04:36:22;;;;;;;28.20;26.40;;;;;;;14.75;100.00;102468.40;1873129;76;26897;-70
2022/07/15 04:42:06;;;;;;;29.10;26.80;;;;;;;14.71;100.00;102460.27;2011314;71;32857;-70
2022/07/15 04:44:54;;;;;;;28.73;26.83;;;;;;;14.87;100.00;102463.41;1966087;72;26196;-70
2022/07/15 04:50:51;;;;;;;28.33;26.43;;;;;;;14.82;100.00;102456.94;2000237;71;33114;-70
2022/07/15 04:53:38;;;;;;;30.10;27.90;;;;;;;14.80;100.00;102457.23;1986903;72;26679;-70
2022/07/15 04:59:23;;;;;;;29.60;27.50;;;;;;;14.74;100.00;102456.07;2015075;71;33355;-70
2022/07/15 05:02:10;;;;;;;28.57;26.77;;;;;;;14.69;100.00;102468.08;1984515;72;26282;-70
2022/07/15 05:07:56;;;;;;;28.40;26.53;;;;;;;14.77;100.00;102455.52;2004293;71;32743;-69
2022/07/15 05:10:44;;;;;;;28.67;26.93;;;;;;;14.70;100.00;102468.38;1961921;72;26209;-69
2022/07/15 05:16:33;;;;;;;29.37;27.53;;;;;;;15.00;100.00;102457.84;1991685;71;32808;-69
2022/07/15 05:19:23;;;;;;;28.93;27.13;;;;;;;14.81;100.00;102463.64;1962384;72;26196;-70
2022/07/15 05:25:10;;;;;;;30.17;28.37;;;;;;;14.85;100.00;102463.38;2015126;71;33338;-69
2022/07/15 05:27:59;;;;;;;29.30;27.40;;;;;;;14.90;100.00;102464.80;1984504;72;26263;-70
2022/07/15 05:33:43;;;;;;;29.37;27.77;;;;;;;14.94;100.00;102465.37;2005892;71;33514;-70
2022/07/15 05:36:31;;;;;;;30.30;28.40;;;;;;;15.19;100.00;102471.59;1966407;72;26201;-70
2022/07/15 05:42:16;;;;;;;29.33;27.53;;;;;;;15.47;100.00;102470.24;2011853;71;32741;-69
2022/07/15 05:45:03;;;;;;;29.87;27.97;;;;;;;15.28;100.00;102476.08;1970797;72;26209;-70
2022/07/15 05:50:48;;;;;;;30.60;28.70;;;;;;;15.30;100.00;102469.11;2005881;71;33343;-69
2022/07/15 05:53:37;;;;;;;28.83;27.10;;;;;;;15.38;100.00;102468.55;1963700;72;26656;-69
2022/07/15 05:59:22;;;;;;;29.13;27.23;;;;;;;15.45;100.00;102466.86;2016633;71;33440;-67
2022/07/15 06:02:13;;;;;;;29.60;27.80;;;;;;;15.51;100.00;102471.95;1978369;72;26197;-67
2022/07/15 06:07:59;;;;;;;32.60;30.77;;;;;;;15.56;100.00;102476.16;2000094;71;32813;-69
2022/07/15 06:10:52;;;;;;;31.60;30.00;;;;;;;15.61;100.00;102478.41;1971855;72;26755;-68
2022/07/15 06:16:37;;;;;;;30.30;28.60;;;;;;;15.83;100.00;102478.14;2009630;71;33388;-69
2022/07/15 06:19:24;;;;;;;29.83;28.33;;;;;;;15.96;100.00;102487.34;1975689;72;26744;-69
2022/07/15 06:25:12;;;;;;;28.87;27.47;;;;;;;15.97;100.00;102483.43;2011615;71;32784;-67
2022/07/15 06:27:59;;;;;;;25.80;24.30;;;;;;;16.15;100.00;102481.45;1959752;72;26258;-69
2022/07/15 06:33:44;;;;;;;24.47;22.87;;;;;;;16.26;100.00;102485.90;2014842;71;32914;-69
2022/07/15 06:36:33;;;;;;;26.40;24.70;;;;;;;16.37;100.00;102490.38;1985765;72;26285;-69
2022/07/15 06:42:18;;;;;;;23.57;22.17;;;;;;;16.42;100.00;102485.88;2005677;71;33387;-69
2022/07/15 06:45:05;;;;;;;25.03;23.47;;;;;;;16.28;100.00;102494.89;1973521;72;26275;-68
2022/07/15 06:50:50;;;;;;;25.47;23.87;;;;;;;16.61;100.00;102486.40;1996947;71;33421;-69
2022/07/15 06:53:37;;;;;;;23.60;22.20;;;;;;;16.43;100.00;102487.57;1980370;72;26282;-69
2022/07/15 06:59:23;;;;;;;23.87;22.57;;;;;;;16.70;100.00;102477.67;2011327;71;32979;-69
2022/07/15 07:02:10;;;;;;;23.67;22.27;;;;;;;16.56;100.00;102485.56;1971238;72;26209;-70
2022/07/15 07:07:54;;;;;;;20.63;19.30;;;;;;;17.00;100.00;102477.24;2011302;70;33404;-69
2022/07/15 07:10:42;;;;;;;20.30;19.20;;;;;;;17.10;100.00;102479.45;1985755;72;26682;-69
2022/07/15 07:16:28;;;;;;;19.40;18.10;;;;;;;17.28;100.00;102467.52;2016719;71;33442;-71
2022/07/15 07:19:15;;;;;;;19.57;18.33;;;;;;;17.26;100.00;102475.97;1975487;72;26622;-72
2022/07/15 07:25:00;;;;;;;18.17;16.70;;;;;;;17.45;100.00;102480.34;2010191;71;33479;-71
2022/07/15 07:27:48;;;;;;;17.47;16.40;;;;;;;17.61;100.00;102478.56;1967456;72;26197;-74
2022/07/15 07:33:34;;;;;;;16.67;15.50;;;;;;;17.70;100.00;102478.78;1977601;72;32943;-74
2022/07/15 07:36:22;;;;;;;16.33;15.50;;;;;;;17.71;100.00;102474.84;1941353;73;26286;-74
2022/07/15 07:42:07;;;;;;;15.50;14.53;;;;;;;18.05;100.00;102470.02;2004535;71;33325;-73
2022/07/15 07:44:55;;;;;;;15.53;14.53;;;;;;;18.27;100.00;102467.27;1962175;72;26246;-74
2022/07/15 07:50:39;;;;;;;13.33;12.47;;;;;;;18.92;100.00;102454.38;2007956;71;32914;-74
2022/07/15 07:53:27;;;;;;;13.13;12.33;;;;;;;18.93;100.00;102458.88;1969515;72;26663;-74
2022/07/15 07:59:11;;;;;;;12.10;11.50;;;;;;;19.60;100.00;102446.87;2010999;71;32948;-74
2022/07/15 08:01:59;;;;;;;11.77;11.17;;;;;;;20.00;100.00;102451.82;1976038;72;26674;-74
2022/07/15 08:07:43;;;;;;;11.30;10.90;;;;;;;19.60;100.00;102450.54;2011749;71;30928;-74
2022/07/15 08:10:32;;;;;;;11.13;10.63;;;;;;;20.04;100.00;102451.46;1958640;72;24225;-74
2022/07/15 08:16:17;;;;;;;13.00;12.40;;;;;;;20.40;100.00;102443.19;1997156;71;30888;-75
2022/07/15 08:19:05;;;;;;;12.83;12.23;;;;;;;20.31;100.00;102445.06;1962311;72;24242;-75
2022/07/15 08:24:50;;;;;;;13.03;12.43;;;;;;;21.04;100.00;102437.00;2013154;71;30895;-74
2022/07/15 08:27:38;;;;;;;12.70;12.03;;;;;;;21.00;100.00;102439.63;1977382;72;24158;-75
2022/07/15 08:33:23;;;;;;;12.43;11.83;;;;;;;21.15;100.00;102432.80;1963751;72;30969;-75
2022/07/15 08:39:06;;;;;;;12.30;11.80;;;;;;;21.04;100.00;102434.17;2005875;71;33408;-75
2022/07/15 08:41:54;;;;;;;12.10;11.50;;;;;;;21.27;100.00;102436.75;1967310;72;24144;-74
2022/07/15 08:47:42;;;;;;;12.17;11.60;;;;;;;21.79;100.00;102429.50;2011708;71;30911;-75
2022/07/15 08:50:30;;;;;;;12.10;11.43;;;;;;;21.77;100.00;102425.33;1975227;72;26668;-76
2022/07/15 08:56:16;;;;;;;12.47;11.80;;;;;;;22.02;100.00;102418.18;2004356;71;32930;-75
2022/07/15 08:59:03;;;;;;;12.10;11.60;;;;;;;22.30;100.00;102418.22;1965961;72;24148;-75
2022/07/15 09:05:23;;;;;;;12.50;11.90;;;;;;;22.23;100.00;102410.22;2014929;71;30940;-75
2022/07/15 09:08:13;;;;;;;13.10;12.30;;;;;;;22.19;100.00;102402.70;1984305;72;26667;-75
2022/07/15 09:14:05;;;;;;;13.03;12.33;;;;;;;22.23;100.00;102397.48;2003769;71;31414;-75
2022/07/15 09:16:53;;;;;;;13.10;12.50;;;;;;;22.08;100.00;102404.13;1977083;72;24598;-75
2022/07/15 09:22:50;;;;;;;13.47;12.97;;;;;;;22.41;100.00;102389.87;2009230;71;30976;-68
2022/07/15 09:25:38;;;;;;;13.43;12.73;;;;;;;22.31;100.00;102393.58;1980274;72;24219;-74
2022/07/15 09:34:40;;;;;;;14.13;13.27;;;;;;;22.32;100.00;102389.02;1956574;73;24254;-75
2022/07/15 09:40:24;;;;;;;13.13;12.53;;;;;;;22.46;100.00;102379.80;1997028;71;30919;-75
2022/07/15 09:43:21;;;;;;;13.03;12.37;;;;;;;22.47;100.00;102385.72;1962634;72;24141;-74
2022/07/15 09:49:13;;;;;;;13.87;13.27;;;;;;;22.68;100.00;102376.86;2014812;71;31035;-76
2022/07/15 09:52:06;;;;;;;13.83;13.17;;;;;;;22.78;100.00;102381.99;1974890;72;24159;-76
2022/07/15 09:57:51;;;;;;;13.40;12.90;;;;;;;22.77;100.00;102376.06;2006182;71;30884;-76
2022/07/15 10:00:39;;;;;;;13.33;12.73;;;;;;;22.87;100.00;102369.52;1962226;72;24165;-76
2022/07/15 10:06:28;;;;;;;14.13;13.40;;;;;;;23.13;100.00;102359.59;2009569;71;31482;-76
2022/07/15 10:09:16;;;;;;;13.93;13.33;;;;;;;23.12;100.00;102362.17;1976180;72;24143;-75
2022/07/15 10:15:09;;;;;;;14.38;13.78;;;;;;;23.19;100.00;102353.19;2006310;71;30829;-75
2022/07/15 10:18:02;;;;;;;13.43;12.82;;;;;;;23.14;100.00;102354.19;1969163;72;24166;-75
2022/07/15 10:20:46;;;;;;;13.58;12.90;;;;;;;23.20;100.00;102350.58;1969823;72;24687;-75
2022/07/15 10:26:56;;;;;;;27.00;16.75;;;;;;;23.03;100.00;102353.67;2016550;71;30914;-74
2022/07/15 10:29:44;;;;;;;15.40;14.10;;;;;;;22.91;100.00;102358.34;1986138;72;24162;-75
2022/07/15 10:35:38;;;;;;;14.07;13.48;;;;;;;23.13;100.00;102349.09;2009784;71;30994;-75
2022/07/15 10:38:42;;;;;;;13.97;13.37;;;;;;;23.24;100.00;102345.90;1969967;72;24675;-75
2022/07/15 10:44:30;;;;;;;14.87;14.18;;;;;;;23.34;100.00;102339.89;2000112;71;30911;-75
2022/07/15 10:47:35;;;;;;;14.60;13.90;;;;;;;23.31;100.00;102341.99;1984974;72;24453;-74
2022/07/15 10:53:52;;;;;;;10.32;9.90;;;;;;;23.35;100.00;102340.98;2007717;71;30990;-74
2022/07/15 10:56:49;;;;;;;11.00;10.50;;;;;;;23.19;100.00;102348.94;1980990;72;24148;-74
2022/07/15 11:02:35;;;;;;;10.40;9.90;;;;;;;23.35;100.00;102334.48;2000226;71;31015;-74
2022/07/15 11:05:38;;;;;;;10.40;9.90;;;;;;;23.44;100.00;102334.75;1984621;72;24153;-74
2022/07/15 11:12:06;;;;;;;10.43;9.83;;;;;;;23.29;100.00;102321.05;2007807;71;30804;-74
2022/07/15 11:15:04;;;;;;;10.00;9.50;;;;;;;23.22;100.00;102327.83;1962736;72;24151;-75
2022/07/15 11:20:57;;;;;;;9.90;9.50;;;;;;;23.44;100.00;102312.06;2004086;71;30871;-73
2022/07/15 11:23:49;;;;;;;10.93;10.30;;;;;;;23.31;100.00;102311.64;1975465;72;24171;-73
2022/07/15 11:29:50;;;;;;;10.32;9.65;;;;;;;23.36;100.00;102309.21;1991652;71;31351;-78
2022/07/15 11:32:38;;;;;;;119.47;28.77;;;;;;;23.50;100.00;102293.67;1977103;72;24165;-76
2022/07/15 11:38:27;;;;;;;10.85;10.18;;;;;;;23.69;100.00;102289.62;1998401;71;33414;-77
2022/07/15 11:47:19;;;;;;;10.80;10.10;;;;;;;23.79;100.00;102285.00;2009907;71;30873;-76
2022/07/15 11:50:06;;;;;;;10.65;10.15;;;;;;;23.76;100.00;102285.66;1966413;72;24581;-78
2022/07/15 11:55:55;;;;;;;11.17;10.57;;;;;;;23.86;100.00;102283.29;2018456;71;31045;-77
2022/07/15 11:58:47;;;;;;;11.48;10.58;;;;;;;23.96;100.00;102277.83;1980917;72;24162;-77
2022/07/15 12:04:38;;;;;;;9.98;9.58;;;;;;;24.09;100.00;102273.08;2015083;71;30888;-76
2022/07/15 12:07:26;;;;;;;17.00;16.02;;;;;;;24.02;100.00;102273.02;1966505;72;24275;-76
2022/07/15 12:13:12;;;;;;;11.15;10.50;;;;;;;23.96;100.00;102263.63;2016599;71;30894;-77
2022/07/15 12:16:00;;;;;;;10.10;9.70;;;;;;;23.94;100.00;102263.96;1966915;72;24687;-76
2022/07/15 12:21:49;;;;;;;11.35;10.43;;;;;;;23.99;100.00;102265.77;2012986;71;30894;-74
2022/07/15 12:24:37;;;;;;;11.05;10.20;;;;;;;23.77;100.00;102262.62;1963670;72;24602;-73
2022/07/15 12:30:23;;;;;;;10.50;10.10;;;;;;;23.76;100.00;102267.21;2016598;71;31084;-75
2022/07/15 12:36:19;;;;;;;10.50;9.93;;;;;;;24.24;100.00;102260.56;2014909;71;31371;-72
2022/07/15 12:42:18;;;;;;;10.40;9.80;;;;;;;23.93;100.00;102262.88;2000869;71;30936;-72
2022/07/15 12:48:20;;;;;;;10.90;10.10;;;;;;;24.24;100.00;102254.05;2006142;71;30941;-72
2022/07/15 12:54:16;;;;;;;10.38;9.88;;;;;;;23.88;100.00;102253.13;2007678;71;30890;-72
2022/07/15 13:00:10;;;;;;;10.30;9.80;;;;;;;23.85;100.00;102251.81;2000871;71;30832;-72
2022/07/15 13:06:22;;;;;;;11.00;10.50;;;;;;;23.89;100.00;102247.70;2014901;71;30883;-72
2022/07/15 13:12:09;;;;;;;10.60;10.10;;;;;;;24.01;100.00;102237.28;2013146;70;30860;-72
2022/07/15 13:17:53;;;;;;;11.18;10.68;;;;;;;24.12;100.00;102237.73;2002488;71;30811;-72
2022/07/15 13:23:40;;;;;;;11.03;10.50;;;;;;;24.08;100.00;102245.27;2014731;71;30891;-72
2022/07/15 13:29:27;;;;;;;14.40;13.68;;;;;;;23.89;100.00;102169.06;1991702;70;31319;-72
2022/07/15 13:35:13;;;;;;;15.50;14.70;;;;;;;24.72;100.00;102247.25;2004505;70;30857;-71
2022/07/15 13:40:57;;;;;;;10.82;10.15;;;;;;;24.12;100.00;102232.05;2005937;71;31501;-71
2022/07/15 13:46:42;;;;;;;10.88;10.18;;;;;;;24.20;100.00;102227.52;2009598;71;30869;-73
2022/07/15 13:52:26;;;;;;;11.50;10.85;;;;;;;24.27;100.00;102220.69;2013399;71;31449;-73
2022/07/15 13:58:11;;;;;;;10.70;10.20;;;;;;;24.45;100.00;102213.70;1991509;71;30812;-73
2022/07/15 14:03:55;;;;;;;10.95;10.45;;;;;;;24.84;100.00;102208.09;2013505;71;31505;-73
2022/07/15 14:09:39;;;;;;;10.58;10.03;;;;;;;24.76;100.00;102206.17;1995157;71;30947;-71
2022/07/15 14:15:24;;;;;;;10.93;10.23;;;;;;;24.58;100.00;102204.06;2013544;71;30879;-73
2022/07/15 14:21:08;;;;;;;11.45;10.88;;;;;;;24.48;100.00;102208.73;2007479;71;31476;-73
2022/07/15 14:26:54;;;;;;;10.65;9.98;;;;;;;24.47;100.00;102215.01;2011387;71;33497;-73
2022/07/15 14:32:40;;;;;;;10.65;10.20;;;;;;;24.52;100.00;102212.55;2016612;71;30987;-73
2022/07/15 14:38:25;;;;;;;10.60;10.10;;;;;;;24.35;100.00;102212.10;2015002;70;31408;-73
2022/07/15 14:44:10;;;;;;;10.70;10.20;;;;;;;24.28;100.00;102207.57;2006398;71;33231;-73
2022/07/15 14:49:54;;;;;;;10.75;10.15;;;;;;;24.42;100.00;102194.52;2002785;71;31311;-71
2022/07/15 14:55:39;;;;;;;10.53;9.90;;;;;;;24.42;100.00;102203.88;2016529;71;30963;-73
2022/07/15 15:01:23;;;;;;;11.05;10.55;;;;;;;24.39;100.00;102205.14;2016797;71;31420;-73
2022/07/15 15:07:07;;;;;;;10.50;10.00;;;;;;;24.35;100.00;102205.00;2000795;71;31398;-72
2022/07/15 15:12:54;;;;;;;10.45;9.95;;;;;;;24.52;100.00;102186.98;1998679;71;30875;-71
2022/07/15 15:18:39;;;;;;;10.13;9.73;;;;;;;24.42;100.00;102181.73;2011155;71;30944;-73
2022/07/15 15:24:24;;;;;;;10.58;10.08;;;;;;;24.56;100.00;102189.36;2002291;71;30936;-73
2022/07/15 15:30:11;;;;;;;10.78;10.32;;;;;;;24.52;100.00;102189.02;2000278;71;31371;-72
2022/07/15 15:35:55;;;;;;;10.75;10.20;;;;;;;24.45;100.00;102188.13;2000756;71;31319;-74
2022/07/15 15:41:40;;;;;;;15.15;14.38;;;;;;;24.54;100.00;102179.54;1995192;71;30881;-74
2022/07/15 15:47:24;;;;;;;15.15;14.25;;;;;;;24.62;100.00;102174.36;1997389;71;30979;-76
2022/07/15 15:53:08;;;;;;;14.80;14.00;;;;;;;24.74;100.00;102171.56;2016694;71;31474;-73
2022/07/15 15:58:53;;;;;;;13.88;13.18;;;;;;;24.61;100.00;102173.53;2018521;71;30930;-73
2022/07/15 16:04:37;;;;;;;12.90;12.20;;;;;;;24.62;100.00;102163.83;2009455;71;31067;-74
2022/07/15 16:10:22;;;;;;;11.03;10.43;;;;;;;24.69;100.00;102165.51;2011210;71;31487;-72
2022/07/15 16:16:08;;;;;;;11.80;11.18;;;;;;;24.65;100.00;102158.86;2013508;71;30799;-71
2022/07/15 16:27:57;;;;;;;11.83;10.85;;;;;;;24.81;100.00;102148.52;2011254;71;30960;-69
2022/07/15 16:33:44;;;;;;;11.73;11.03;;;;;;;24.83;100.00;102140.45;2003978;71;31000;-70
2022/07/15 16:39:29;;;;;;;11.75;10.95;;;;;;;24.93;100.00;102142.06;2014939;71;31424;-72
2022/07/15 16:45:14;;;;;;;10.75;10.25;;;;;;;24.87;100.00;102143.45;1995287;71;30884;-72
2022/07/15 16:51:00;;;;;;;11.57;10.88;;;;;;;24.78;100.00;102135.58;2018659;71;31482;-71
2022/07/15 16:56:45;;;;;;;11.38;10.20;;;;;;;24.87;100.00;102133.50;1991012;71;30806;-74
2022/07/15 17:02:30;;;;;;;11.33;10.70;;;;;;;24.93;100.00;102142.89;1921883;70;104729;-76
2022/07/15 17:08:15;;;;;;;11.50;10.80;;;;;;;24.89;100.00;102142.53;2014825;71;30891;-71
2022/07/15 17:14:00;;;;;;;10.78;10.28;;;;;;;24.83;100.00;102146.73;2018644;71;31101;-75
2022/07/15 17:19:46;;;;;;;11.03;10.32;;;;;;;24.84;100.00;102142.72;2011765;71;30810;-71
2022/07/15 17:25:31;;;;;;;9.75;9.25;;;;;;;24.89;100.00;102129.73;1995636;71;31283;-72
2022/07/15 17:31:17;;;;;;;10.43;9.63;;;;;;;24.83;100.00;102133.34;2015043;71;30893;-71
2022/07/15 17:37:02;;;;;;;10.10;9.40;;;;;;;24.83;100.00;102124.82;2018766;71;31306;-75
2022/07/15 17:42:47;;;;;;;9.73;9.23;;;;;;;25.01;100.00;102121.23;2011573;71;30969;-75
2022/07/15 17:48:31;;;;;;;10.40;9.70;;;;;;;24.92;100.00;102129.02;2004871;71;31285;-79
2022/07/15 17:54:21;;;;;;;10.60;9.90;;;;;;;24.91;100.00;102131.62;2009951;70;31406;-77
2022/07/15 18:00:10;;;;;;;9.75;9.33;;;;;;;24.83;100.00;102131.09;2001025;70;31456;-77
2022/07/15 18:05:55;;;;;;;10.68;10.08;;;;;;;24.77;100.00;102124.80;2008185;71;30869;-78
2022/07/15 18:11:40;;;;;;;10.15;9.60;;;;;;;24.74;100.00;102116.98;2017296;71;30956;-79
2022/07/15 18:17:25;;;;;;;10.80;9.98;;;;;;;24.85;100.00;102115.95;2017085;71;31516;-78
2022/07/15 18:23:10;;;;;;;10.43;9.88;;;;;;;24.78;100.00;102119.36;2012117;71;30797;-78
2022/07/15 18:28:56;;;;;;;10.60;10.10;;;;;;;24.82;100.00;102118.06;2005936;71;30861;-78
2022/07/15 18:34:41;;;;;;;9.80;9.30;;;;;;;24.77;100.00;102113.42;1995382;71;31365;-78
2022/07/15 18:40:27;;;;;;;10.63;10.10;;;;;;;24.92;100.00;102111.97;2009753;71;30879;-72
2022/07/15 18:46:14;;;;;;;10.72;10.28;;;;;;;24.93;100.00;102108.78;2013481;71;31400;-73
2022/07/15 18:52:00;;;;;;;10.60;10.10;;;;;;;24.57;100.00;102114.91;2016730;71;30957;-74
2022/07/15 18:57:44;;;;;;;10.78;10.20;;;;;;;24.79;100.00;102116.76;2009761;71;30877;-74
2022/07/15 19:03:31;;;;;;;11.03;10.10;;;;;;;24.60;100.00;102119.91;2014991;71;30998;-72
2022/07/15 19:09:17;;;;;;;11.60;11.10;;;;;;;24.77;100.00;102112.00;2005917;71;30891;-73
2022/07/15 19:15:02;;;;;;;9.95;9.55;;;;;;;24.83;100.00;102106.94;2011737;71;30805;-73
2022/07/15 19:20:48;;;;;;;9.65;9.25;;;;;;;24.25;100.00;102118.81;2001002;71;31410;-73
2022/07/15 19:26:33;;;;;;;10.45;9.95;;;;;;;23.54;100.00;102113.11;2013168;71;30883;-76
2022/07/15 19:32:18;;;;;;;9.75;9.35;;;;;;;23.15;100.00;102125.61;2008848;71;30817;-79
2022/07/15 19:38:03;;;;;;;10.45;9.95;;;;;;;22.99;100.00;102115.17;2007928;71;31443;-70
2022/07/15 19:43:48;;;;;;;10.43;9.80;;;;;;;23.01;100.00;102117.09;2016848;71;30932;-72
2022/07/15 19:49:33;;;;;;;10.00;9.60;;;;;;;23.34;100.00;102116.70;2009605;71;30875;-72
2022/07/15 19:55:19;;;;;;;10.75;10.15;;;;;;;22.81;100.00;102116.39;1991566;71;30992;-72
2022/07/15 20:01:04;;;;;;;10.20;9.80;;;;;;;22.36;100.00;102124.45;2006286;71;31451;-72
2022/07/15 20:06:50;;;;;;;10.10;9.70;;;;;;;22.22;100.00;102128.28;2000557;71;32988;-72
2022/07/15 20:12:36;;;;;;;9.77;9.27;;;;;;;22.04;100.00;102136.51;2015081;71;31487;-72
2022/07/15 20:18:22;;;;;;;10.47;9.80;;;;;;;22.08;100.00;102138.92;2011920;70;30824;-73
2022/07/15 20:24:08;;;;;;;10.43;9.97;;;;;;;21.77;100.00;102159.42;1998624;71;30944;-72
2022/07/15 20:29:53;;;;;;;10.03;9.63;;;;;;;21.74;100.00;102167.12;2009367;71;30865;-74
2022/07/15 20:35:39;;;;;;;10.23;9.77;;;;;;;21.52;100.00;102172.30;2000436;71;31403;-73
2022/07/15 20:41:24;;;;;;;9.90;9.50;;;;;;;21.52;100.00;102177.15;2016687;71;30930;-72
2022/07/15 20:47:08;;;;;;;10.50;9.93;;;;;;;21.43;100.00;102181.94;2004028;71;30997;-73
2022/07/15 20:52:53;;;;;;;10.57;9.77;;;;;;;21.30;100.00;102183.13;2013258;71;30868;-74
2022/07/15 20:58:38;;;;;;;10.20;9.80;;;;;;;21.36;100.00;102183.80;2011631;71;30875;-74
2022/07/15 21:04:23;;;;;;;10.23;9.70;;;;;;;21.12;100.00;102187.02;2011415;71;31416;-76
2022/07/15 21:10:09;;;;;;;10.07;9.67;;;;;;;21.13;100.00;102191.52;2009395;71;30952;-75
2022/07/15 21:15:54;;;;;;;10.50;10.00;;;;;;;20.97;100.00;102195.02;1998051;71;30913;-80
2022/07/15 21:21:39;;;;;;;10.53;10.13;;;;;;;20.81;100.00;102202.50;2009844;71;30913;-71
2022/07/15 21:27:25;;;;;;;10.47;9.97;;;;;;;20.77;100.00;102209.95;2018246;71;30916;-73
2022/07/15 21:33:10;;;;;;;10.30;9.90;;;;;;;20.80;100.00;102211.28;1959865;72;31019;-72
2022/07/15 21:38:56;;;;;;;10.80;10.20;;;;;;;20.79;100.00;102215.28;1998542;71;30902;-73
2022/07/15 21:44:40;;;;;;;10.80;10.20;;;;;;;20.62;100.00;102215.98;2016592;71;30876;-73
2022/07/15 21:50:26;;;;;;;11.73;10.93;;;;;;;20.56;100.00;102225.72;2006515;71;31431;-74
2022/07/15 21:56:11;;;;;;;12.07;11.37;;;;;;;20.33;100.00;102222.59;2013406;71;30992;-72
2022/07/15 22:01:55;;;;;;;10.90;10.40;;;;;;;20.10;100.00;102242.02;2004056;71;30875;-73
2022/07/15 22:07:40;;;;;;;11.13;10.63;;;;;;;20.43;100.00;102250.59;2010032;71;31354;-72